Time;durP1;ratioP1;P1;durP2;ratioP2;P2;SDS_P1;SDS_P2;PMS_P1;PMS_P2;Temp;Humidity;BMP_temperature;BMP_pressure;BME280_temperature;BME280_humidity;BME280_pressure;Samples;Min_cycle;Max_cycle;Signal;HPM_P1;HPM_P2
2023/07/21 00:00:13;;;;;;;7.43;4.75;;;;;;;;;;5084812;28;20026;-63
2023/07/21 00:02:41;;;;;;;9.77;5.43;;;;;;;;;;5085905;28;20015;-63
2023/07/21 00:05:06;;;;;;;9.10;4.68;;;;;;;;;;5086300;28;20027;-63
2023/07/21 00:07:32;;;;;;;8.65;4.85;;;;;;;;;;5085381;28;20020;-61
2023/07/21 00:10:00;;;;;;;7.25;4.47;;;;;;;;;;5085958;28;20016;-62
2023/07/21 00:12:25;;;;;;;7.90;4.53;;;;;;;;;;5083467;28;20031;-61
2023/07/21 00:14:53;;;;;;;9.53;4.70;;;;;;;;;;5079195;28;20027;-62
2023/07/21 00:17:20;;;;;;;7.10;4.72;;;;;;;;;;5078562;28;20885;-62
2023/07/21 00:19:46;;;;;;;8.13;4.40;;;;;;;;;;5084806;28;20171;-62
2023/07/21 00:22:11;;;;;;;7.00;4.10;;;;;;;;;;5089545;28;20051;-63
2023/07/21 00:24:36;;;;;;;8.63;4.68;;;;;;;;;;5087491;28;20051;-63
2023/07/21 00:27:02;;;;;;;10.07;4.47;;;;;;;;;;5083336;28;20648;-63
2023/07/21 00:29:29;;;;;;;7.88;4.93;;;;;;;;;;5080941;28;20114;-63
2023/07/21 00:31:57;;;;;;;8.80;5.00;;;;;;;;;;5083304;28;20055;-62
2023/07/21 00:34:24;;;;;;;7.53;4.60;;;;;;;;;;5087461;28;20253;-63
2023/07/21 00:36:53;;;;;;;8.25;4.97;;;;;;;;;;5089821;28;20026;-62
2023/07/21 00:39:21;;;;;;;7.38;4.55;;;;;;;;;;5084760;28;20024;-62
2023/07/21 00:41:46;;;;;;;9.50;4.78;;;;;;;;;;5087586;28;20024;-62
2023/07/21 00:44:13;;;;;;;9.77;4.95;;;;;;;;;;5078093;28;20054;-62
2023/07/21 00:46:38;;;;;;;9.80;4.50;;;;;;;;;;5083874;28;20413;-63
2023/07/21 00:49:08;;;;;;;7.85;5.03;;;;;;;;;;5082837;28;20035;-64
2023/07/21 00:51:33;;;;;;;9.27;4.90;;;;;;;;;;5087215;28;20478;-62
2023/07/21 00:54:00;;;;;;;7.67;4.63;;;;;;;;;;5085473;28;20050;-63
2023/07/21 00:56:28;;;;;;;7.50;4.45;;;;;;;;;;5086688;28;20815;-63
2023/07/21 00:58:54;;;;;;;8.10;4.60;;;;;;;;;;5085853;28;20028;-61
2023/07/21 01:01:19;;;;;;;7.43;4.45;;;;;;;;;;5087590;28;20098;-61
2023/07/21 01:03:44;;;;;;;8.97;4.83;;;;;;;;;;5081811;28;20503;-62
2023/07/21 01:06:10;;;;;;;7.75;4.57;;;;;;;;;;5081653;28;20145;-62
2023/07/21 01:08:38;;;;;;;7.78;4.75;;;;;;;;;;5089107;28;20019;-63
2023/07/21 01:11:03;;;;;;;7.93;5.13;;;;;;;;;;5086925;28;20039;-62
2023/07/21 01:13:30;;;;;;;7.93;4.35;;;;;;;;;;5076488;28;20020;-65
2023/07/21 01:15:55;;;;;;;6.97;4.65;;;;;;;;;;5084347;28;20054;-64
2023/07/21 01:18:21;;;;;;;8.93;4.78;;;;;;;;;;5077140;28;20146;-64
2023/07/21 01:20:49;;;;;;;8.70;5.18;;;;;;;;;;5088029;28;20374;-64
2023/07/21 01:23:17;;;;;;;8.63;4.90;;;;;;;;;;5082254;28;20024;-63
2023/07/21 01:25:45;;;;;;;8.98;4.95;;;;;;;;;;5087559;28;20092;-64
2023/07/21 01:28:12;;;;;;;8.50;4.82;;;;;;;;;;5087695;28;20023;-64
2023/07/21 01:30:41;;;;;;;7.95;4.80;;;;;;;;;;5081123;28;20149;-64
2023/07/21 01:33:09;;;;;;;;;;;;;;;;;;5085011;28;20143;-64
2023/07/21 01:35:36;;;;;;;7.78;4.60;;;;;;;;;;5084290;28;19919;-64
2023/07/21 01:38:05;;;;;;;8.30;4.50;;;;;;;;;;5089269;28;20016;-64
2023/07/21 01:40:33;;;;;;;8.75;5.18;;;;;;;;;;5087083;28;20110;-63
2023/07/21 01:42:58;;;;;;;7.93;4.25;;;;;;;;;;5086918;28;20023;-62
2023/07/21 01:45:25;;;;;;;8.18;4.47;;;;;;;;;;5087941;28;20525;-63
2023/07/21 01:47:51;;;;;;;8.15;4.60;;;;;;;;;;5084368;28;20027;-64
2023/07/21 01:50:17;;;;;;;7.72;4.78;;;;;;;;;;5087677;28;20352;-64
2023/07/21 01:52:45;;;;;;;8.55;5.15;;;;;;;;;;5085195;28;20016;-64
2023/07/21 01:55:28;;;;;;;8.68;4.70;;;;;;;;;;5086270;28;20067;-64
2023/07/21 01:57:55;;;;;;;8.80;5.32;;;;;;;;;;5085013;28;20043;-64
2023/07/21 02:00:22;;;;;;;8.30;4.72;;;;;;;;;;5091611;27;20069;-62
2023/07/21 02:02:48;;;;;;;7.82;4.95;;;;;;;;;;5083696;28;20092;-63
2023/07/21 02:05:17;;;;;;;10.30;5.28;;;;;;;;;;5085534;28;20028;-64
2023/07/21 02:07:44;;;;;;;10.07;4.95;;;;;;;;;;5083927;28;20016;-63
2023/07/21 02:10:10;;;;;;;8.15;4.70;;;;;;;;;;5086925;28;20505;-62
2023/07/21 02:12:35;;;;;;;9.15;4.68;;;;;;;;;;5089005;28;20016;-63
2023/07/21 02:15:05;;;;;;;7.70;4.80;;;;;;;;;;5085697;28;21051;-62
2023/07/21 02:17:30;;;;;;;10.20;5.00;;;;;;;;;;5087837;28;20134;-63
2023/07/21 02:19:58;;;;;;;11.10;5.40;;;;;;;;;;5079594;28;20016;-63
2023/07/21 02:22:23;;;;;;;7.85;4.82;;;;;;;;;;5091937;28;20869;-62
2023/07/21 02:24:48;;;;;;;7.35;4.70;;;;;;;;;;5086912;28;20023;-63
2023/07/21 02:27:17;;;;;;;9.25;5.05;;;;;;;;;;5088139;28;20157;-63
2023/07/21 02:29:48;;;;;;;9.63;5.30;;;;;;;;;;5085377;28;20031;-63
2023/07/21 02:32:13;;;;;;;10.00;4.82;;;;;;;;;;5087595;28;20434;-64
2023/07/21 02:34:41;;;;;;;7.03;4.60;;;;;;;;;;5093036;28;20457;-63
2023/07/21 02:37:11;;;;;;;10.55;4.80;;;;;;;;;;5084763;28;21318;-63
2023/07/21 02:39:36;;;;;;;7.95;4.90;;;;;;;;;;5092342;28;20023;-63
2023/07/21 02:42:01;;;;;;;9.23;4.97;;;;;;;;;;5084076;28;20375;-64
2023/07/21 02:44:29;;;;;;;9.13;5.30;;;;;;;;;;5088057;28;20016;-63
2023/07/21 02:46:54;;;;;;;9.85;5.10;;;;;;;;;;5089644;28;20319;-64
2023/07/21 02:49:20;;;;;;;9.35;5.28;;;;;;;;;;5085019;28;20028;-62
2023/07/21 02:51:45;;;;;;;9.07;5.00;;;;;;;;;;5086882;28;20026;-65
2023/07/21 02:54:11;;;;;;;10.35;5.40;;;;;;;;;;5086837;28;20782;-63
2023/07/21 02:56:37;;;;;;;11.32;5.70;;;;;;;;;;5086144;28;20035;-63
2023/07/21 02:59:02;;;;;;;8.88;5.32;;;;;;;;;;5089302;27;20073;-63
2023/07/21 03:01:27;;;;;;;7.47;5.05;;;;;;;;;;5086766;28;20417;-63
2023/07/21 03:03:54;;;;;;;8.75;5.35;;;;;;;;;;5088402;28;20031;-62
2023/07/21 03:06:19;;;;;;;9.48;5.28;;;;;;;;;;5085726;28;20089;-63
2023/07/21 03:08:45;;;;;;;8.68;4.95;;;;;;;;;;5084951;28;20123;-63
2023/07/21 03:11:13;;;;;;;8.13;5.03;;;;;;;;;;5091171;28;20019;-63
2023/07/21 03:13:38;;;;;;;9.63;5.28;;;;;;;;;;5080870;28;20725;-63
2023/07/21 03:16:06;;;;;;;8.30;5.20;;;;;;;;;;5087841;28;20020;-63
2023/07/21 03:18:31;;;;;;;8.98;5.03;;;;;;;;;;5091431;28;20808;-63
2023/07/21 03:20:59;;;;;;;8.32;5.07;;;;;;;;;;5083299;28;20039;-62
2023/07/21 03:23:29;;;;;;;9.45;5.45;;;;;;;;;;5092938;28;20097;-63
2023/07/21 03:25:57;;;;;;;8.82;4.93;;;;;;;;;;5091211;28;20016;-62
2023/07/21 03:28:23;;;;;;;8.90;5.43;;;;;;;;;;5083291;28;20837;-64
2023/07/21 03:31:01;;;;;;;9.85;5.07;;;;;;;;;;5086289;28;20019;-64
2023/07/21 03:33:26;;;;;;;9.00;5.18;;;;;;;;;;5080329;28;20019;-64
2023/07/21 03:35:58;;;;;;;10.98;5.18;;;;;;;;;;5084888;28;20066;-62
2023/07/21 03:38:26;;;;;;;9.23;5.20;;;;;;;;;;5084243;28;20112;-62
2023/07/21 03:41:01;;;;;;;9.27;5.30;;;;;;;;;;5086506;28;20027;-62
2023/07/21 03:43:26;;;;;;;8.35;4.72;;;;;;;;;;5085661;28;20024;-62
2023/07/21 03:45:57;;;;;;;9.20;5.67;;;;;;;;;;5089532;28;20844;-62
2023/07/21 03:48:27;;;;;;;8.02;5.03;;;;;;;;;;5089876;28;20787;-63
2023/07/21 03:51:02;;;;;;;7.68;5.13;;;;;;;;;;5083571;28;20012;-62
2023/07/21 03:53:28;;;;;;;9.35;5.22;;;;;;;;;;5092773;28;20008;-62
2023/07/21 03:55:54;;;;;;;8.13;5.35;;;;;;;;;;5083253;28;20022;-63
2023/07/21 03:58:19;;;;;;;9.77;5.68;;;;;;;;;;5086359;28;20120;-64
2023/07/21 04:00:47;;;;;;;9.50;5.40;;;;;;;;;;5085914;28;20101;-63
2023/07/21 04:03:12;;;;;;;7.68;5.25;;;;;;;;;;5086824;28;20027;-64
2023/07/21 04:05:40;;;;;;;8.55;5.45;;;;;;;;;;5082886;28;20016;-63
2023/07/21 04:08:05;;;;;;;9.50;5.28;;;;;;;;;;5089444;28;20485;-63
2023/07/21 04:10:33;;;;;;;8.20;5.15;;;;;;;;;;5083732;27;20443;-63
2023/07/21 04:12:59;;;;;;;9.45;5.25;;;;;;;;;;5085579;28;20047;-64
2023/07/21 04:15:25;;;;;;;9.38;5.13;;;;;;;;;;5087887;28;20609;-63
2023/07/21 04:17:53;;;;;;;9.10;5.00;;;;;;;;;;5086516;28;20690;-63
2023/07/21 04:20:24;;;;;;;8.70;5.38;;;;;;;;;;5084782;28;20042;-63
2023/07/21 04:22:51;;;;;;;9.75;5.40;;;;;;;;;;5083221;28;20024;-63
2023/07/21 04:25:19;;;;;;;7.88;5.10;;;;;;;;;;5090247;28;20015;-61
2023/07/21 04:27:50;;;;;;;9.40;5.00;;;;;;;;;;5086199;28;20121;-62
2023/07/21 04:30:16;;;;;;;7.28;4.93;;;;;;;;;;5086418;28;20028;-63
2023/07/21 04:32:41;;;;;;;9.35;5.47;;;;;;;;;;5086344;27;20026;-64
2023/07/21 04:35:08;;;;;;;9.55;5.25;;;;;;;;;;5085289;28;20499;-64
2023/07/21 04:37:36;;;;;;;10.40;5.22;;;;;;;;;;5084898;28;20016;-63
2023/07/21 04:40:04;;;;;;;8.23;5.00;;;;;;;;;;5087607;28;20030;-62
2023/07/21 04:42:29;;;;;;;9.80;4.85;;;;;;;;;;5079025;28;20493;-63
2023/07/21 04:44:54;;;;;;;9.15;5.10;;;;;;;;;;5082612;28;20028;-62
2023/07/21 04:47:21;;;;;;;7.73;5.10;;;;;;;;;;5083005;28;20273;-62
2023/07/21 04:49:48;;;;;;;9.13;5.30;;;;;;;;;;5081463;28;20458;-62
2023/07/21 04:52:13;;;;;;;9.15;4.78;;;;;;;;;;5090641;28;20023;-64
2023/07/21 04:54:39;;;;;;;9.60;5.05;;;;;;;;;;5083995;28;20039;-63
2023/07/21 04:57:06;;;;;;;10.63;5.45;;;;;;;;;;5087146;28;20024;-63
2023/07/21 04:59:32;;;;;;;10.00;5.18;;;;;;;;;;5085760;28;20030;-63
2023/07/21 05:01:58;;;;;;;9.00;4.60;;;;;;;;;;5079708;28;20328;-62
2023/07/21 05:04:23;;;;;;;8.25;4.85;;;;;;;;;;5083440;28;20031;-63
2023/07/21 05:06:49;;;;;;;8.90;5.65;;;;;;;;;;5081291;28;20019;-63
2023/07/21 05:09:14;;;;;;;7.70;4.60;;;;;;;;;;5083716;28;20759;-61
2023/07/21 05:11:42;;;;;;;9.25;5.00;;;;;;;;;;5084361;28;20839;-64
2023/07/21 05:14:07;;;;;;;9.05;4.45;;;;;;;;;;5081815;28;20031;-64
2023/07/21 05:16:35;;;;;;;8.27;4.53;;;;;;;;;;5083139;28;20012;-63
2023/07/21 05:19:00;;;;;;;8.75;4.80;;;;;;;;;;5076980;28;20055;-63
2023/07/21 05:21:28;;;;;;;7.78;4.78;;;;;;;;;;5085247;28;20191;-63
2023/07/21 05:23:54;;;;;;;8.82;5.30;;;;;;;;;;5087675;28;20020;-63
2023/07/21 05:26:21;;;;;;;7.15;4.45;;;;;;;;;;5086278;28;20011;-64
2023/07/21 05:28:46;;;;;;;9.20;4.70;;;;;;;;;;5085752;28;20016;-63
2023/07/21 05:31:12;;;;;;;9.63;4.60;;;;;;;;;;5085740;28;20583;-62
2023/07/21 05:33:37;;;;;;;7.82;4.68;;;;;;;;;;5085306;28;20022;-64
2023/07/21 05:36:09;;;;;;;7.82;4.65;;;;;;;;;;5085662;28;20031;-63
2023/07/21 05:38:35;;;;;;;7.90;4.55;;;;;;;;;;5088056;28;20080;-62
2023/07/21 05:41:00;;;;;;;9.18;4.68;;;;;;;;;;5090834;28;20038;-63
2023/07/21 05:43:26;;;;;;;7.85;5.15;;;;;;;;;;5080416;28;20130;-64
2023/07/21 05:45:51;;;;;;;8.43;4.68;;;;;;;;;;5078582;28;20641;-62
2023/07/21 05:48:16;;;;;;;8.17;4.43;;;;;;;;;;5082736;28;20634;-65
2023/07/21 05:50:44;;;;;;;6.80;4.50;;;;;;;;;;5090727;28;20270;-64
2023/07/21 05:53:11;;;;;;;8.98;4.57;;;;;;;;;;5082311;28;20771;-65
2023/07/21 05:55:42;;;;;;;8.45;4.72;;;;;;;;;;5087018;27;20028;-64
2023/07/21 05:58:08;;;;;;;8.43;4.55;;;;;;;;;;5083690;28;20114;-63
2023/07/21 06:00:38;;;;;;;8.48;4.85;;;;;;;;;;5084580;28;20540;-66
2023/07/21 06:03:04;;;;;;;10.73;4.75;;;;;;;;;;5091010;28;20023;-62
2023/07/21 06:05:29;;;;;;;8.93;4.78;;;;;;;;;;5090190;28;20031;-62
2023/07/21 06:07:58;;;;;;;9.90;5.30;;;;;;;;;;5086353;28;20114;-61
2023/07/21 06:10:23;;;;;;;13.70;6.03;;;;;;;;;;5088863;28;20031;-62
2023/07/21 06:12:48;;;;;;;17.65;6.70;;;;;;;;;;5085666;28;20027;-65
2023/07/21 06:15:14;;;;;;;14.03;6.80;;;;;;;;;;5083045;28;20031;-63
2023/07/21 06:17:39;;;;;;;21.17;7.93;;;;;;;;;;5090500;28;20108;-65
2023/07/21 06:20:06;;;;;;;16.75;8.23;;;;;;;;;;5089229;28;20023;-73
2023/07/21 06:22:36;;;;;;;12.13;7.47;;;;;;;;;;5090658;28;20016;-70
2023/07/21 06:25:03;;;;;;;12.75;8.45;;;;;;;;;;5082046;28;20136;-65
2023/07/21 06:27:29;;;;;;;11.57;7.72;;;;;;;;;;5081925;28;20019;-65
2023/07/21 06:29:57;;;;;;;12.20;8.43;;;;;;;;;;5084772;28;20031;-66
2023/07/21 06:32:23;;;;;;;11.30;7.63;;;;;;;;;;5093232;28;20020;-68
2023/07/21 06:34:48;;;;;;;10.73;7.18;;;;;;;;;;5084774;28;20502;-67
2023/07/21 06:37:14;;;;;;;10.67;7.27;;;;;;;;;;5090631;28;20027;-66
2023/07/21 06:39:41;;;;;;;11.87;7.83;;;;;;;;;;5088676;28;20254;-64
2023/07/21 06:42:10;;;;;;;11.98;8.48;;;;;;;;;;5092508;28;20790;-64
2023/07/21 06:44:37;;;;;;;10.57;7.68;;;;;;;;;;5085576;28;20788;-63
2023/07/21 06:47:03;;;;;;;10.50;7.05;;;;;;;;;;5094141;28;20055;-63
2023/07/21 06:49:28;;;;;;;10.88;7.18;;;;;;;;;;5086834;28;20036;-65
2023/07/21 06:51:56;;;;;;;8.97;6.37;;;;;;;;;;5085269;28;20049;-64
2023/07/21 06:54:22;;;;;;;14.35;8.60;;;;;;;;;;5084166;28;20836;-64
2023/07/21 06:56:49;;;;;;;11.18;7.78;;;;;;;;;;5088007;28;20023;-64
2023/07/21 06:59:15;;;;;;;10.32;6.80;;;;;;;;;;5091293;28;20035;-63
2023/07/21 07:01:43;;;;;;;12.27;6.03;;;;;;;;;;5091042;28;20019;-63
2023/07/21 07:04:08;;;;;;;12.77;6.03;;;;;;;;;;5084319;28;20110;-63
2023/07/21 07:06:33;;;;;;;8.80;5.63;;;;;;;;;;5082882;28;20023;-64
2023/07/21 07:09:01;;;;;;;9.93;6.27;;;;;;;;;;5074688;28;21231;-63
2023/07/21 07:11:27;;;;;;;10.07;6.03;;;;;;;;;;5084889;28;20453;-62
2023/07/21 07:13:54;;;;;;;9.27;5.43;;;;;;;;;;5082309;28;20031;-61
2023/07/21 07:16:20;;;;;;;9.45;5.65;;;;;;;;;;5084901;28;20169;-62
2023/07/21 07:18:45;;;;;;;9.53;5.13;;;;;;;;;;5087674;28;20203;-61
2023/07/21 07:21:11;;;;;;;10.52;4.82;;;;;;;;;;5084881;28;20051;-62
2023/07/21 07:23:36;;;;;;;9.20;5.37;;;;;;;;;;5082916;28;20027;-61
2023/07/21 07:26:01;;;;;;;7.43;4.67;;;;;;;;;;5081018;28;20027;-61
2023/07/21 07:28:27;;;;;;;9.55;4.72;;;;;;;;;;5083906;28;20077;-62
2023/07/21 07:30:52;;;;;;;7.97;4.77;;;;;;;;;;5087697;28;20019;-64
2023/07/21 07:33:17;;;;;;;7.67;4.60;;;;;;;;;;5085357;28;20257;-64
2023/07/21 07:35:52;;;;;;;9.40;4.50;;;;;;;;;;5088538;28;20285;-64
2023/07/21 07:38:19;;;;;;;10.35;4.97;;;;;;;;;;5085617;28;20279;-64
2023/07/21 07:40:46;;;;;;;8.73;4.70;;;;;;;;;;5087312;28;20843;-64
2023/07/21 07:43:11;;;;;;;8.95;4.72;;;;;;;;;;5086288;28;20455;-63
2023/07/21 07:45:36;;;;;;;10.98;5.60;;;;;;;;;;5083729;28;20020;-63
2023/07/21 07:48:02;;;;;;;11.55;5.00;;;;;;;;;;5089646;28;20561;-64
2023/07/21 07:50:27;;;;;;;10.40;5.18;;;;;;;;;;5081350;28;20008;-62
2023/07/21 07:52:52;;;;;;;11.93;5.43;;;;;;;;;;5084819;28;20042;-63
2023/07/21 07:55:19;;;;;;;13.07;6.00;;;;;;;;;;5084965;28;20027;-64
2023/07/21 07:57:44;;;;;;;9.05;5.45;;;;;;;;;;5087483;28;20016;-64
2023/07/21 08:00:10;;;;;;;12.30;5.33;;;;;;;;;;5086499;28;20049;-62
2023/07/21 08:02:35;;;;;;;8.80;5.15;;;;;;;;;;5082014;28;20969;-62
2023/07/21 08:05:00;;;;;;;10.77;5.83;;;;;;;;;;5088837;28;20084;-63
2023/07/21 08:07:25;;;;;;;11.00;6.13;;;;;;;;;;5085228;28;20062;-62
2023/07/21 08:09:50;;;;;;;12.47;8.13;;;;;;;;;;5084490;28;20549;-64
2023/07/21 08:12:21;;;;;;;13.13;7.33;;;;;;;;;;5080553;28;20606;-69
2023/07/21 08:14:46;;;;;;;17.20;7.78;;;;;;;;;;5089631;28;20312;-62
2023/07/21 08:17:11;;;;;;;11.30;6.67;;;;;;;;;;5087149;28;20027;-65
2023/07/21 08:19:36;;;;;;;12.47;7.90;;;;;;;;;;5082846;28;20020;-63
2023/07/21 08:22:07;;;;;;;12.57;8.60;;;;;;;;;;5090017;28;20019;-65
2023/07/21 08:24:33;;;;;;;12.05;8.00;;;;;;;;;;5084589;28;20024;-67
2023/07/21 08:27:02;;;;;;;14.98;8.55;;;;;;;;;;5085248;28;20023;-69
2023/07/21 08:29:28;;;;;;;11.55;7.57;;;;;;;;;;5077638;28;20031;-68
2023/07/21 08:31:53;;;;;;;14.32;8.30;;;;;;;;;;5085924;28;20023;-67
2023/07/21 08:34:18;;;;;;;12.07;8.10;;;;;;;;;;5085914;28;20126;-63
2023/07/21 08:36:46;;;;;;;11.63;7.53;;;;;;;;;;5078989;28;20173;-65
2023/07/21 08:39:14;;;;;;;12.32;8.15;;;;;;;;;;5090010;28;20246;-62
2023/07/21 08:41:43;;;;;;;13.45;7.97;;;;;;;;;;5080432;28;20012;-64
2023/07/21 08:44:09;;;;;;;11.70;6.50;;;;;;;;;;5082182;28;20035;-63
2023/07/21 08:46:37;;;;;;;11.98;6.38;;;;;;;;;;5076938;28;20603;-63
2023/07/21 08:49:02;;;;;;;9.40;5.30;;;;;;;;;;5081783;28;20792;-66
2023/07/21 08:51:28;;;;;;;10.30;5.90;;;;;;;;;;5089590;28;20012;-64
2023/07/21 08:53:55;;;;;;;10.63;5.70;;;;;;;;;;5080602;28;20571;-62
2023/07/21 08:56:25;;;;;;;9.30;5.72;;;;;;;;;;5086042;28;20789;-63
2023/07/21 08:58:53;;;;;;;11.27;5.88;;;;;;;;;;5082743;28;20016;-63
2023/07/21 09:01:20;;;;;;;10.65;5.80;;;;;;;;;;5088661;28;20815;-62
2023/07/21 09:03:46;;;;;;;8.05;4.90;;;;;;;;;;5083851;28;20064;-64
2023/07/21 09:06:12;;;;;;;10.18;5.82;;;;;;;;;;5086860;28;20964;-63
2023/07/21 09:08:40;;;;;;;9.25;5.63;;;;;;;;;;5091668;28;20020;-63
2023/07/21 09:11:10;;;;;;;8.95;5.78;;;;;;;;;;5082424;28;20035;-63
2023/07/21 09:13:35;;;;;;;11.82;6.78;;;;;;;;;;5082086;28;20749;-61
2023/07/21 09:16:02;;;;;;;11.47;6.40;;;;;;;;;;5080987;28;20107;-61
2023/07/21 09:18:28;;;;;;;10.55;5.93;;;;;;;;;;5084041;28;20047;-60
2023/07/21 09:20:54;;;;;;;8.88;5.20;;;;;;;;;;5083153;28;20047;-62
2023/07/21 09:23:20;;;;;;;10.27;4.78;;;;;;;;;;5082623;28;20636;-61
2023/07/21 09:26:03;;;;;;;8.40;4.57;;;;;;;;;;5077792;28;20116;-62
2023/07/21 09:28:38;;;;;;;10.32;4.70;;;;;;;;;;5077226;28;20159;-61
2023/07/21 09:31:07;;;;;;;8.40;4.93;;;;;;;;;;5090403;28;20020;-62
2023/07/21 09:33:38;;;;;;;7.35;4.70;;;;;;;;;;5082286;28;20026;-61
2023/07/21 09:36:10;;;;;;;8.00;4.97;;;;;;;;;;5091129;28;20139;-64
2023/07/21 09:38:36;;;;;;;8.63;4.43;;;;;;;;;;5082445;28;20020;-62
2023/07/21 09:41:07;;;;;;;11.82;5.75;;;;;;;;;;5089420;28;20057;-61
2023/07/21 09:43:35;;;;;;;6.95;4.35;;;;;;;;;;5083628;28;20371;-62
2023/07/21 09:46:03;;;;;;;7.95;4.70;;;;;;;;;;5082097;28;20534;-63
2023/07/21 09:48:30;;;;;;;6.63;4.20;;;;;;;;;;5085508;28;20033;-61
2023/07/21 09:51:02;;;;;;;7.60;4.38;;;;;;;;;;5079871;28;20246;-63
2023/07/21 09:53:30;;;;;;;7.65;4.47;;;;;;;;;;5078323;28;21360;-62
2023/07/21 09:55:56;;;;;;;8.55;4.82;;;;;;;;;;5082028;28;20901;-63
2023/07/21 09:58:25;;;;;;;7.72;4.93;;;;;;;;;;5088602;28;20030;-65
2023/07/21 10:00:51;;;;;;;8.30;4.70;;;;;;;;;;5084731;28;20160;-64
2023/07/21 10:03:17;;;;;;;8.32;4.18;;;;;;;;;;5081201;28;20018;-61
2023/07/21 10:05:42;;;;;;;7.40;4.28;;;;;;;;;;5081316;28;20028;-61
2023/07/21 10:08:09;;;;;;;9.40;5.00;;;;;;;;;;5083211;28;20048;-62
2023/07/21 10:10:35;;;;;;;8.27;4.80;;;;;;;;;;5080793;28;20136;-62
2023/07/21 10:13:03;;;;;;;8.57;4.45;;;;;;;;;;5078683;28;20310;-63
2023/07/21 10:15:30;;;;;;;9.25;4.53;;;;;;;;;;5081834;28;20402;-62
2023/07/21 10:18:06;;;;;;;6.85;4.22;;;;;;;;;;5080145;28;20082;-62
2023/07/21 10:20:42;;;;;;;8.10;4.45;;;;;;;;;;5086103;28;20026;-60
2023/07/21 10:23:08;;;;;;;6.93;4.10;;;;;;;;;;5086152;28;20828;-61
2023/07/21 10:25:45;;;;;;;7.78;4.47;;;;;;;;;;5082974;28;20026;-61
2023/07/21 10:28:11;;;;;;;7.40;4.43;;;;;;;;;;5089615;28;20019;-61
2023/07/21 10:30:36;;;;;;;7.30;4.38;;;;;;;;;;5077273;28;20019;-61
2023/07/21 10:33:22;;;;;;;7.57;4.53;;;;;;;;;;5078821;28;20107;-61
2023/07/21 10:35:48;;;;;;;8.20;4.63;;;;;;;;;;5084905;28;20035;-61
2023/07/21 10:38:13;;;;;;;7.53;4.68;;;;;;;;;;5082599;28;20343;-60
2023/07/21 10:40:40;;;;;;;6.80;4.20;;;;;;;;;;5081478;28;20069;-61
2023/07/21 10:43:05;;;;;;;7.05;4.70;;;;;;;;;;5083059;28;20353;-61
2023/07/21 10:45:30;;;;;;;7.43;4.50;;;;;;;;;;5084522;28;20485;-60
2023/07/21 10:47:55;;;;;;;7.77;4.47;;;;;;;;;;5082034;28;21179;-61
2023/07/21 10:50:21;;;;;;;6.97;4.60;;;;;;;;;;5088151;28;20197;-60
2023/07/21 10:52:47;;;;;;;8.55;4.80;;;;;;;;;;5080040;28;20122;-62
2023/07/21 10:55:20;;;;;;;7.25;4.68;;;;;;;;;;5086114;28;20036;-60
2023/07/21 10:57:47;;;;;;;7.07;4.50;;;;;;;;;;5082876;28;20119;-62
2023/07/21 11:00:13;;;;;;;8.68;4.30;;;;;;;;;;5082318;28;20035;-61
2023/07/21 11:02:38;;;;;;;7.50;4.30;;;;;;;;;;5088740;28;20020;-60
2023/07/21 11:05:04;;;;;;;8.38;4.78;;;;;;;;;;5082773;28;20028;-61
2023/07/21 11:07:30;;;;;;;7.53;4.28;;;;;;;;;;5088176;28;20443;-62
2023/07/21 11:09:58;;;;;;;7.85;4.50;;;;;;;;;;5082971;28;20056;-63
2023/07/21 11:12:26;;;;;;;7.43;4.18;;;;;;;;;;5087368;28;20027;-61
2023/07/21 11:14:54;;;;;;;7.43;4.22;;;;;;;;;;5081713;28;20127;-61
2023/07/21 11:17:20;;;;;;;7.65;4.55;;;;;;;;;;5081541;28;20131;-61
2023/07/21 11:19:47;;;;;;;6.67;4.33;;;;;;;;;;5081960;28;20377;-61
2023/07/21 11:22:12;;;;;;;7.70;4.20;;;;;;;;;;5085353;28;20835;-62
2023/07/21 11:24:40;;;;;;;8.05;4.05;;;;;;;;;;5078555;28;20120;-62
2023/07/21 11:27:06;;;;;;;8.77;4.10;;;;;;;;;;5083976;28;20020;-64
2023/07/21 11:29:32;;;;;;;7.57;4.07;;;;;;;;;;5084782;28;20023;-61
2023/07/21 11:31:58;;;;;;;8.32;4.30;;;;;;;;;;5080749;28;20043;-62
2023/07/21 11:34:29;;;;;;;8.05;4.10;;;;;;;;;;5086267;28;20044;-60
2023/07/21 11:36:59;;;;;;;7.82;4.57;;;;;;;;;;5077972;28;20557;-61
2023/07/21 11:39:28;;;;;;;8.57;4.80;;;;;;;;;;5080608;28;20028;-61
2023/07/21 11:41:55;;;;;;;8.98;5.00;;;;;;;;;;5076685;28;20035;-62
2023/07/21 11:44:28;;;;;;;7.82;4.97;;;;;;;;;;5082851;28;20231;-62
2023/07/21 11:46:54;;;;;;;10.73;4.85;;;;;;;;;;5083069;28;20031;-62
2023/07/21 11:49:22;;;;;;;8.85;5.00;;;;;;;;;;5084457;28;20019;-61
2023/07/21 11:51:49;;;;;;;7.75;4.63;;;;;;;;;;5082695;28;20092;-62
2023/07/21 11:54:21;;;;;;;8.43;5.40;;;;;;;;;;5080411;28;20107;-62
2023/07/21 11:56:47;;;;;;;9.40;5.38;;;;;;;;;;5091240;28;20027;-61
2023/07/21 11:59:12;;;;;;;8.10;5.15;;;;;;;;;;5084665;28;20031;-63
2023/07/21 12:01:38;;;;;;;9.63;5.17;;;;;;;;;;5081851;28;20478;-60
2023/07/21 12:04:04;;;;;;;7.78;4.97;;;;;;;;;;5090156;28;20055;-61
2023/07/21 12:06:31;;;;;;;8.50;4.90;;;;;;;;;;5080203;28;20203;-60
2023/07/21 12:08:56;;;;;;;8.13;4.72;;;;;;;;;;5088390;28;20012;-62
2023/07/21 12:11:21;;;;;;;6.47;4.13;;;;;;;;;;5084960;28;20409;-61
2023/07/21 12:13:49;;;;;;;9.37;4.47;;;;;;;;;;5087699;28;20027;-62
2023/07/21 12:16:17;;;;;;;6.95;4.10;;;;;;;;;;5082671;28;20274;-62
2023/07/21 12:18:42;;;;;;;6.90;4.22;;;;;;;;;;5093290;28;20352;-62
2023/07/21 12:21:08;;;;;;;8.60;4.20;;;;;;;;;;5083628;27;20157;-62
2023/07/21 12:23:33;;;;;;;8.68;4.15;;;;;;;;;;5088070;28;20039;-62
2023/07/21 12:25:58;;;;;;;7.20;3.95;;;;;;;;;;5079642;28;20107;-62
2023/07/21 12:28:24;;;;;;;8.13;4.70;;;;;;;;;;5085425;28;20016;-60
2023/07/21 12:30:49;;;;;;;8.23;4.45;;;;;;;;;;5083080;28;20335;-61
2023/07/21 12:33:14;;;;;;;8.67;4.77;;;;;;;;;;5082652;28;20024;-61
2023/07/21 12:35:40;;;;;;;6.90;4.47;;;;;;;;;;5091932;28;20351;-61
2023/07/21 12:38:07;;;;;;;7.85;4.43;;;;;;;;;;5081976;28;20016;-60
2023/07/21 12:40:33;;;;;;;8.60;4.47;;;;;;;;;;5093528;28;20608;-61
2023/07/21 12:42:58;;;;;;;8.77;4.20;;;;;;;;;;5083406;28;20132;-62
2023/07/21 12:45:26;;;;;;;7.45;4.47;;;;;;;;;;5091603;28;20057;-62
2023/07/21 12:47:51;;;;;;;8.15;4.20;;;;;;;;;;5079932;28;20015;-60
2023/07/21 12:50:19;;;;;;;8.00;4.30;;;;;;;;;;5085112;28;20023;-61
2023/07/21 12:52:44;;;;;;;6.45;4.18;;;;;;;;;;5088074;28;20020;-61
2023/07/21 12:55:12;;;;;;;6.83;3.83;;;;;;;;;;5088294;28;20046;-61
2023/07/21 12:57:37;;;;;;;8.55;4.55;;;;;;;;;;5079392;28;20982;-62
2023/07/21 13:00:03;;;;;;;7.57;4.25;;;;;;;;;;5084697;28;20020;-60
2023/07/21 13:02:28;;;;;;;6.45;4.10;;;;;;;;;;5087742;28;20095;-63
2023/07/21 13:04:56;;;;;;;8.18;4.43;;;;;;;;;;5078647;28;20023;-63
2023/07/21 13:07:21;;;;;;;6.57;4.18;;;;;;;;;;5080301;28;20809;-61
2023/07/21 13:09:49;;;;;;;8.37;3.80;;;;;;;;;;5075653;28;20046;-62
2023/07/21 13:12:17;;;;;;;8.30;4.30;;;;;;;;;;5082497;28;20740;-63
2023/07/21 13:14:42;;;;;;;7.40;4.50;;;;;;;;;;5084192;28;20038;-62
2023/07/21 13:17:07;;;;;;;6.73;4.03;;;;;;;;;;5083058;28;20024;-63
2023/07/21 13:19:33;;;;;;;7.50;4.18;;;;;;;;;;5083641;28;20585;-63
2023/07/21 13:22:00;;;;;;;7.57;4.67;;;;;;;;;;5081138;28;20360;-63
2023/07/21 13:24:26;;;;;;;7.40;4.20;;;;;;;;;;5087777;28;20296;-61
2023/07/21 13:26:54;;;;;;;8.13;4.40;;;;;;;;;;5079382;28;20597;-62
2023/07/21 13:29:19;;;;;;;8.95;4.60;;;;;;;;;;5085408;28;20249;-62
2023/07/21 13:31:47;;;;;;;7.38;4.28;;;;;;;;;;5086455;28;20026;-62
2023/07/21 13:34:14;;;;;;;7.18;4.15;;;;;;;;;;5089486;28;20031;-62
2023/07/21 13:36:41;;;;;;;7.40;3.92;;;;;;;;;;5089600;28;20019;-64
2023/07/21 13:39:08;;;;;;;8.32;4.10;;;;;;;;;;5086434;28;20107;-63
2023/07/21 13:41:33;;;;;;;7.05;4.28;;;;;;;;;;5088215;28;20167;-63
2023/07/21 13:43:58;;;;;;;8.43;4.10;;;;;;;;;;5083336;28;20381;-63
2023/07/21 13:46:24;;;;;;;6.40;4.00;;;;;;;;;;5088851;28;20051;-61
2023/07/21 13:48:52;;;;;;;7.10;4.18;;;;;;;;;;5086965;28;20803;-64
2023/07/21 13:51:20;;;;;;;6.20;3.63;;;;;;;;;;5083740;28;20059;-62
2023/07/21 13:53:46;;;;;;;7.53;4.40;;;;;;;;;;5089145;28;20099;-62
2023/07/21 13:56:14;;;;;;;6.53;4.00;;;;;;;;;;5090822;28;20053;-61
2023/07/21 13:58:39;;;;;;;7.35;4.10;;;;;;;;;;5093917;28;20112;-63
2023/07/21 14:01:07;;;;;;;6.63;3.67;;;;;;;;;;5087089;28;20552;-64
2023/07/21 14:03:34;;;;;;;8.68;4.30;;;;;;;;;;5094584;28;20714;-63
2023/07/21 14:05:59;;;;;;;9.27;4.25;;;;;;;;;;5087207;28;20019;-63
2023/07/21 14:08:25;;;;;;;7.15;3.85;;;;;;;;;;5093391;28;20600;-63
2023/07/21 14:10:52;;;;;;;7.50;3.92;;;;;;;;;;5082639;28;20482;-63
2023/07/21 14:13:18;;;;;;;7.78;3.80;;;;;;;;;;5089783;28;20019;-63
2023/07/21 14:15:46;;;;;;;8.80;3.73;;;;;;;;;;5085655;28;20030;-63
2023/07/21 14:18:11;;;;;;;7.20;3.90;;;;;;;;;;5092296;28;20304;-61
2023/07/21 14:20:39;;;;;;;6.80;3.83;;;;;;;;;;5086182;27;20016;-60
2023/07/21 14:23:05;;;;;;;6.90;3.70;;;;;;;;;;5092839;28;20037;-62
2023/07/21 14:25:33;;;;;;;7.50;3.70;;;;;;;;;;5087096;28;20027;-61
2023/07/21 14:27:59;;;;;;;6.93;3.70;;;;;;;;;;5083812;28;21022;-62
2023/07/21 14:30:24;;;;;;;8.37;4.33;;;;;;;;;;5092842;27;20062;-62
2023/07/21 14:32:49;;;;;;;8.50;3.97;;;;;;;;;;5086854;28;20023;-63
2023/07/21 14:35:17;;;;;;;6.80;3.92;;;;;;;;;;5091819;28;20347;-62
2023/07/21 14:37:43;;;;;;;6.80;3.85;;;;;;;;;;5080865;28;20354;-63